Time;durP1;ratioP1;P1;durP2;ratioP2;P2;SDS_P1;SDS_P2;PMS_P1;PMS_P2;Temp;Humidity;BMP_temperature;BMP_pressure;BME280_temperature;BME280_humidity;BME280_pressure;Samples;Min_cycle;Max_cycle;Signal;HPM_P1;HPM_P2
2023/10/14 00:01:24;;;;;;;17.33;4.85;;;19.10;99.90;;;;;;5009884;28;20021;-65
2023/10/14 00:03:50;;;;;;;13.32;6.07;;;19.10;99.90;;;;;;5008712;28;20030;-65
2023/10/14 00:06:19;;;;;;;15.90;6.15;;;19.20;99.90;;;;;;5008349;28;20033;-65
2023/10/14 00:08:50;;;;;;;16.73;5.78;;;19.20;99.90;;;;;;5005817;28;20506;-65
2023/10/14 00:11:17;;;;;;;17.20;5.93;;;19.20;99.90;;;;;;5001774;28;20026;-65
2023/10/14 00:13:48;;;;;;;14.43;5.63;;;19.20;99.90;;;;;;5009793;28;20026;-65
2023/10/14 00:16:41;;;;;;;10.80;5.95;;;19.30;99.90;;;;;;5009583;28;20105;-65
2023/10/14 00:19:09;;;;;;;12.95;5.78;;;19.30;99.90;;;;;;5008509;28;20026;-65
2023/10/14 00:21:36;;;;;;;15.77;5.82;;;19.30;99.90;;;;;;5007479;28;20112;-65
2023/10/14 00:24:04;;;;;;;15.87;5.70;;;19.30;99.90;;;;;;5005294;28;20103;-65
2023/10/14 00:26:30;;;;;;;11.32;5.75;;;19.40;99.90;;;;;;5007996;28;20342;-65
2023/10/14 00:31:40;;;;;;;13.90;4.90;;;19.50;99.90;;;;;;5006548;28;20376;-65
2023/10/14 00:34:06;;;;;;;11.13;5.97;;;19.50;99.90;;;;;;5011079;28;20030;-65
2023/10/14 00:36:36;;;;;;;14.52;5.68;;;19.50;99.90;;;;;;5004064;28;20387;-65
2023/10/14 00:39:13;;;;;;;12.63;5.40;;;19.50;99.90;;;;;;5010600;28;20037;-65
2023/10/14 00:41:49;;;;;;;17.80;5.93;;;19.60;99.90;;;;;;5006517;28;20468;-65
2023/10/14 00:44:15;;;;;;;15.73;5.55;;;19.60;99.90;;;;;;5007200;28;20029;-65
2023/10/14 00:46:48;;;;;;;12.60;5.85;;;19.60;99.90;;;;;;5005942;28;20038;-65
2023/10/14 00:49:21;;;;;;;18.33;5.97;;;19.60;99.90;;;;;;5003651;28;20026;-65
2023/10/14 00:51:55;;;;;;;14.50;5.95;;;19.60;99.90;;;;;;5005471;28;20452;-65
2023/10/14 00:57:09;;;;;;;17.50;5.75;;;19.50;99.90;;;;;;5002763;28;20403;-65
2023/10/14 00:59:37;;;;;;;20.08;6.57;;;19.60;99.90;;;;;;5004381;28;20479;-65
2023/10/14 01:02:07;;;;;;;14.15;5.30;;;19.60;99.90;;;;;;5005956;28;20033;-65
2023/10/14 01:04:33;;;;;;;12.88;6.13;;;19.50;99.90;;;;;;5003376;28;20041;-64
2023/10/14 01:07:04;;;;;;;15.88;5.47;;;19.60;99.90;;;;;;5007919;28;20048;-64
2023/10/14 01:09:41;;;;;;;11.63;5.93;;;19.50;99.90;;;;;;5005668;28;20034;-64
2023/10/14 01:12:18;;;;;;;11.80;5.57;;;19.60;99.90;;;;;;5006624;28;20033;-64
2023/10/14 01:14:44;;;;;;;19.13;6.30;;;19.60;99.90;;;;;;5003495;28;20037;-65
2023/10/14 01:19:51;;;;;;;17.90;5.50;;;19.60;99.90;;;;;;5005439;28;20030;-65
2023/10/14 01:22:17;;;;;;;16.52;6.15;;;19.60;99.90;;;;;;5006894;28;20494;-65
2023/10/14 01:24:43;;;;;;;21.35;5.80;;;19.60;99.90;;;;;;5006722;28;20038;-65
2023/10/14 01:27:10;;;;;;;18.13;6.35;;;19.60;99.90;;;;;;5002639;28;20407;-65
2023/10/14 01:29:39;;;;;;;16.88;8.02;;;19.60;99.90;;;;;;5007033;28;20133;-65
2023/10/14 01:32:10;;;;;;;18.40;6.50;;;19.60;99.90;;;;;;5006279;28;20455;-65
2023/10/14 01:34:43;;;;;;;11.82;5.95;;;19.50;99.90;;;;;;5007219;28;20561;-65
2023/10/14 01:37:19;;;;;;;8.00;3.33;;;19.50;99.90;;;;;;5006705;28;20476;-65
2023/10/14 01:39:50;;;;;;;2.55;1.40;;;19.20;99.90;;;;;;5005797;28;20421;-65
2023/10/14 01:42:17;;;;;;;3.72;1.73;;;18.60;99.90;;;;;;5005165;28;20027;-65
2023/10/14 01:44:44;;;;;;;3.13;1.42;;;18.30;99.90;;;;;;5006208;28;20029;-65
2023/10/14 01:47:09;;;;;;;5.10;1.17;;;18.20;99.90;;;;;;5008813;28;20061;-64
2023/10/14 01:49:36;;;;;;;4.28;1.10;;;17.70;99.90;;;;;;5004973;28;20062;-64
2023/10/14 01:52:14;;;;;;;6.70;1.42;;;17.60;99.90;;;;;;5005036;28;20061;-64
2023/10/14 01:54:40;;;;;;;8.77;1.65;;;17.40;99.90;;;;;;5007003;28;20399;-64
2023/10/14 01:57:11;;;;;;;14.00;1.95;;;17.20;99.90;;;;;;5006943;28;20026;-64
2023/10/14 01:59:39;;;;;;;15.20;2.17;;;17.10;99.90;;;;;;5006688;28;20037;-64
2023/10/14 02:02:05;;;;;;;7.25;1.90;;;17.10;99.90;;;;;;5005920;28;20076;-64
2023/10/14 02:04:31;;;;;;;12.43;2.17;;;17.00;99.90;;;;;;5007104;28;20466;-64
2023/10/14 02:07:18;;;;;;;6.97;2.33;;;16.90;99.90;;;;;;5010176;28;20092;-64
2023/10/14 02:09:43;;;;;;;8.07;1.70;;;16.80;99.90;;;;;;5008724;28;20030;-65
2023/10/14 02:12:09;;;;;;;3.58;1.42;;;16.80;99.90;;;;;;5009965;28;20487;-65
2023/10/14 02:14:44;;;;;;;11.55;2.00;;;16.80;99.90;;;;;;5007739;28;20091;-65
2023/10/14 02:17:12;;;;;;;6.03;1.42;;;16.70;99.90;;;;;;5009173;28;20127;-65
2023/10/14 02:19:38;;;;;;;2.60;0.90;;;16.70;99.90;;;;;;5009438;28;20022;-65
2023/10/14 02:22:09;;;;;;;4.18;0.98;;;16.30;99.90;;;;;;5010838;28;20030;-65
2023/10/14 02:24:36;;;;;;;2.40;0.82;;;15.90;99.90;;;;;;5005563;28;20113;-65
2023/10/14 02:27:14;;;;;;;4.57;0.75;;;15.70;99.90;;;;;;5009791;28;20036;-65
2023/10/14 02:29:43;;;;;;;3.83;0.68;;;15.60;99.90;;;;;;5008179;28;20030;-65
2023/10/14 02:32:12;;;;;;;3.55;0.70;;;15.50;99.90;;;;;;5009673;28;20455;-65
2023/10/14 02:34:44;;;;;;;4.18;0.70;;;15.50;99.90;;;;;;5006724;28;20030;-65
2023/10/14 02:37:13;;;;;;;3.05;0.70;;;15.40;99.90;;;;;;5007312;28;20061;-64
2023/10/14 02:39:42;;;;;;;8.77;0.95;;;15.30;99.90;;;;;;5008833;28;20506;-64
2023/10/14 02:42:09;;;;;;;4.10;0.73;;;15.20;99.90;;;;;;5010429;28;20455;-64
2023/10/14 02:44:54;;;;;;;4.25;0.88;;;15.30;99.90;;;;;;5007692;28;20109;-64
2023/10/14 02:47:20;;;;;;;3.60;1.10;;;15.30;99.90;;;;;;5007574;28;20081;-64
2023/10/14 02:49:53;;;;;;;5.43;1.00;;;15.40;99.90;;;;;;5008686;28;20548;-64
2023/10/14 02:52:28;;;;;;;4.30;1.83;;;15.40;99.90;;;;;;5009412;28;20022;-64
2023/10/14 02:54:55;;;;;;;6.32;0.60;;;15.40;99.90;;;;;;5009664;28;20018;-64
2023/10/14 02:57:25;;;;;;;4.68;0.90;;;15.20;99.90;;;;;;5008329;28;20029;-64
2023/10/14 02:59:55;;;;;;;1.83;0.68;;;15.30;99.90;;;;;;5010853;28;20167;-64
2023/10/14 03:07:36;;;;;;;2.55;0.70;;;15.00;99.90;;;;;;5006299;28;20471;-64
2023/10/14 03:12:40;;;;;;;1.50;0.68;;;15.00;99.90;;;;;;5011639;28;20030;-64
2023/10/14 03:15:19;;;;;;;1.08;0.85;;;15.00;99.90;;;;;;5004212;28;20029;-64
2023/10/14 03:18:01;;;;;;;3.13;0.85;;;15.10;99.90;;;;;;5006990;28;20030;-64
2023/10/14 03:23:03;;;;;;;2.47;0.70;;;15.00;99.90;;;;;;5009231;28;20053;-64
2023/10/14 03:25:29;;;;;;;3.83;1.00;;;15.10;99.90;;;;;;5008320;28;20052;-64
2023/10/14 03:28:07;;;;;;;5.47;1.00;;;15.00;99.90;;;;;;5008412;28;20359;-64
2023/10/14 03:30:37;;;;;;;;;;;14.80;99.90;;;;;;5009685;28;20088;-64
2023/10/14 03:33:10;;;;;;;6.65;0.95;;;14.70;99.90;;;;;;5006418;28;19914;-64
2023/10/14 03:35:42;;;;;;;6.70;1.15;;;14.60;99.90;;;;;;5006064;28;20026;-64
2023/10/14 03:38:55;;;;;;;4.93;0.98;;;14.70;99.90;;;;;;5012183;28;20026;-64
2023/10/14 03:43:42;;;;;;;3.13;0.80;;;14.80;99.90;;;;;;5008237;28;20026;-64
2023/10/14 03:46:12;;;;;;;2.15;1.25;;;14.90;99.90;;;;;;5003395;28;20842;-64
2023/10/14 03:48:47;;;;;;;1.95;0.90;;;14.90;99.90;;;;;;5006747;28;20399;-64
2023/10/14 03:51:27;;;;;;;4.82;0.80;;;14.80;99.90;;;;;;5006257;28;20030;-64
2023/10/14 03:53:54;;;;;;;3.08;0.90;;;14.80;99.90;;;;;;5008397;28;20498;-64
2023/10/14 03:56:25;;;;;;;2.17;0.80;;;14.80;99.90;;;;;;5006040;28;20034;-64
2023/10/14 03:58:55;;;;;;;6.40;1.17;;;14.80;99.90;;;;;;5008042;28;20029;-64
2023/10/14 04:01:29;;;;;;;1.35;0.70;;;14.70;99.90;;;;;;5004866;28;20083;-64
2023/10/14 04:03:55;;;;;;;1.70;0.80;;;14.70;99.90;;;;;;5004447;28;20030;-64
2023/10/14 04:06:23;;;;;;;2.83;0.73;;;14.60;99.90;;;;;;5006997;28;20868;-64
2023/10/14 04:08:49;;;;;;;5.63;1.45;;;14.60;99.90;;;;;;5006195;28;20104;-64
2023/10/14 04:11:25;;;;;;;1.42;0.55;;;14.50;99.90;;;;;;5007998;28;20026;-64
2023/10/14 04:14:00;;;;;;;4.80;1.48;;;14.30;99.90;;;;;;5007244;28;20030;-64
2023/10/14 04:19:22;;;;;;;13.90;1.50;;;14.00;99.90;;;;;;5006915;28;20029;-64
2023/10/14 04:21:59;;;;;;;7.13;1.60;;;14.00;99.90;;;;;;5005883;28;20080;-65
2023/10/14 04:24:50;;;;;;;11.07;2.85;;;13.70;99.90;;;;;;5006149;28;20026;-64
2023/10/14 04:32:48;;;;;;;15.45;1.70;;;13.50;99.90;;;;;;5007412;28;20506;-64
2023/10/14 04:35:19;;;;;;;11.73;1.30;;;13.50;99.90;;;;;;5003319;28;20022;-64
2023/10/14 04:37:51;;;;;;;12.15;1.30;;;13.50;99.90;;;;;;5006745;28;20607;-64
2023/10/14 04:43:06;;;;;;;11.52;2.25;;;13.60;99.90;;;;;;5008355;28;20030;-64
2023/10/14 04:45:32;;;;;;;8.75;1.63;;;13.50;99.90;;;;;;5004258;28;20482;-64
2023/10/14 04:47:58;;;;;;;8.20;1.55;;;13.50;99.90;;;;;;5007268;28;20033;-64
2023/10/14 04:50:26;;;;;;;7.60;1.65;;;13.50;99.90;;;;;;5006196;28;20030;-64
2023/10/14 04:52:52;;;;;;;6.15;1.45;;;13.50;99.90;;;;;;5002603;28;20042;-64
2023/10/14 04:58:32;;;;;;;10.57;1.55;;;13.50;99.90;;;;;;5007154;28;20029;-64
2023/10/14 05:00:42;;;;;;;8.38;1.48;;;13.60;99.90;;;;;;4999547;28;20037;-64
2023/10/14 05:03:18;;;;;;;9.98;1.20;;;13.50;99.90;;;;;;5001070;28;20022;-64
2023/10/14 05:05:52;;;;;;;9.77;1.60;;;13.40;99.90;;;;;;5007880;28;20425;-64
2023/10/14 05:08:23;;;;;;;7.00;1.65;;;13.50;99.90;;;;;;5002893;28;20061;-64
2023/10/14 05:10:51;;;;;;;9.85;1.40;;;13.50;99.90;;;;;;5003369;28;20018;-64
2023/10/14 05:13:19;;;;;;;16.60;1.63;;;13.40;99.90;;;;;;5004549;28;20040;-64
2023/10/14 05:15:53;;;;;;;7.28;1.38;;;13.40;99.90;;;;;;5003579;28;20392;-64
2023/10/14 05:18:35;;;;;;;14.25;1.65;;;13.30;99.90;;;;;;5008208;28;20449;-64
2023/10/14 05:21:12;;;;;;;10.35;1.60;;;13.20;99.90;;;;;;5004508;28;20042;-64
2023/10/14 05:23:41;;;;;;;10.60;1.67;;;13.30;99.90;;;;;;5007574;28;20049;-64
2023/10/14 05:26:14;;;;;;;11.52;1.85;;;13.20;99.90;;;;;;5006510;28;20164;-64
2023/10/14 05:28:42;;;;;;;12.50;1.90;;;13.20;99.90;;;;;;5006660;28;20029;-64
2023/10/14 05:31:10;;;;;;;16.25;2.80;;;13.20;99.90;;;;;;5004774;28;20099;-64
2023/10/14 05:33:36;;;;;;;10.68;1.80;;;13.20;99.90;;;;;;5006247;28;20515;-64
2023/10/14 05:36:05;;;;;;;16.55;2.08;;;13.10;99.90;;;;;;5004952;28;20034;-64
2023/10/14 05:38:30;;;;;;;9.10;1.50;;;13.10;99.90;;;;;;5007119;28;20479;-64
2023/10/14 05:40:58;;;;;;;10.82;1.33;;;13.10;99.90;;;;;;5006466;28;20080;-64
2023/10/14 05:43:25;;;;;;;7.70;1.80;;;13.10;99.90;;;;;;5011964;28;20021;-64
2023/10/14 05:45:54;;;;;;;6.22;1.10;;;13.00;99.90;;;;;;5009363;28;20034;-64
2023/10/14 05:48:30;;;;;;;15.80;2.05;;;13.10;99.90;;;;;;5011499;28;20022;-64
2023/10/14 05:51:02;;;;;;;18.02;2.05;;;13.00;99.90;;;;;;5004668;28;20080;-64
2023/10/14 05:53:31;;;;;;;9.02;1.40;;;13.00;99.90;;;;;;5006260;28;20110;-64
2023/10/14 05:56:09;;;;;;;15.98;2.67;;;13.00;99.90;;;;;;5009037;28;20026;-64
2023/10/14 05:58:36;;;;;;;14.32;1.75;;;13.00;99.90;;;;;;5009431;28;20034;-64
2023/10/14 06:01:08;;;;;;;13.10;2.03;;;13.00;99.90;;;;;;4982352;28;20046;-64
2023/10/14 06:03:33;;;;;;;13.02;1.98;;;12.90;99.90;;;;;;4987837;28;20610;-64
2023/10/14 06:06:09;;;;;;;16.10;1.30;;;13.00;99.90;;;;;;4985454;28;20050;-64
2023/10/14 06:08:40;;;;;;;16.35;1.90;;;12.90;99.90;;;;;;4987623;28;20033;-65
2023/10/14 06:11:10;;;;;;;13.10;1.70;;;12.90;99.90;;;;;;4986545;28;20037;-64
2023/10/14 06:13:35;;;;;;;22.83;2.80;;;12.90;99.90;;;;;;4991497;28;20045;-64
2023/10/14 06:16:09;;;;;;;9.85;1.35;;;12.90;99.90;;;;;;4982686;28;21644;-64
2023/10/14 06:18:39;;;;;;;19.17;2.78;;;12.90;99.90;;;;;;4985113;28;20023;-64
2023/10/14 06:21:10;;;;;;;11.32;2.25;;;12.90;99.90;;;;;;4986728;28;20603;-65
2023/10/14 06:23:47;;;;;;;11.60;2.42;;;12.90;99.90;;;;;;4987066;28;20018;-64
2023/10/14 06:26:17;;;;;;;12.30;2.75;;;13.10;99.90;;;;;;4986103;28;20030;-64
2023/10/14 06:28:44;;;;;;;11.00;2.05;;;13.00;99.90;;;;;;4989927;28;20038;-64
2023/10/14 06:31:09;;;;;;;11.93;2.08;;;13.20;99.90;;;;;;4983277;28;20109;-64
2023/10/14 06:33:35;;;;;;;13.23;1.88;;;13.10;99.90;;;;;;4988236;28;20160;-64
2023/10/14 06:36:04;;;;;;;17.88;2.38;;;13.10;99.90;;;;;;4986733;28;20026;-64
2023/10/14 06:38:29;;;;;;;12.45;1.83;;;13.10;99.90;;;;;;4985980;28;20034;-64
2023/10/14 06:41:01;;;;;;;15.05;2.75;;;13.20;99.90;;;;;;4988532;28;20076;-64
2023/10/14 06:43:28;;;;;;;9.40;1.65;;;13.20;99.90;;;;;;4987793;28;20045;-64
2023/10/14 06:45:58;;;;;;;10.32;1.92;;;13.30;99.90;;;;;;4988075;28;20029;-64
2023/10/14 06:48:24;;;;;;;19.00;2.40;;;13.40;99.90;;;;;;4990178;28;20023;-64
2023/10/14 06:50:55;;;;;;;8.88;1.50;;;13.20;99.90;;;;;;4984603;28;20530;-64
2023/10/14 06:53:20;;;;;;;18.98;2.13;;;13.30;99.90;;;;;;4987567;28;20023;-64
2023/10/14 06:55:46;;;;;;;11.15;1.98;;;13.20;99.90;;;;;;4986099;28;20046;-64
2023/10/14 06:58:13;;;;;;;8.40;1.40;;;13.30;99.90;;;;;;4989232;28;20030;-64
2023/10/14 07:00:40;;;;;;;8.65;1.50;;;13.20;99.90;;;;;;4984841;28;20034;-64
2023/10/14 07:03:07;;;;;;;11.20;2.42;;;13.20;99.90;;;;;;4984397;28;20058;-64
2023/10/14 07:05:43;;;;;;;9.18;1.55;;;13.20;99.90;;;;;;4986962;28;20668;-64
2023/10/14 07:08:11;;;;;;;9.98;1.70;;;13.30;99.90;;;;;;4982113;28;20046;-64
2023/10/14 07:10:36;;;;;;;;;;;13.30;99.90;;;;;;4986244;28;20030;-64
2023/10/14 07:13:03;;;;;;;18.70;3.05;;;13.20;99.90;;;;;;4984063;28;19914;-64
2023/10/14 07:15:33;;;;;;;13.40;2.20;;;13.20;99.90;;;;;;4984916;28;20064;-64
2023/10/14 07:18:01;;;;;;;9.38;1.70;;;13.20;99.90;;;;;;4986819;28;20498;-64
2023/10/14 07:20:29;;;;;;;13.10;1.63;;;13.30;99.90;;;;;;4986348;28;20034;-64
2023/10/14 07:23:01;;;;;;;16.92;2.65;;;13.20;99.90;;;;;;4988060;28;20145;-64
2023/10/14 07:25:42;;;;;;;11.65;1.52;;;13.30;99.90;;;;;;5000049;28;20121;-64
2023/10/14 07:28:13;;;;;;;12.10;1.65;;;13.30;99.90;;;;;;4985929;28;20027;-64
2023/10/14 07:30:46;;;;;;;10.10;1.50;;;13.20;99.90;;;;;;4985250;28;20034;-64
2023/10/14 07:33:14;;;;;;;10.40;2.05;;;13.20;99.90;;;;;;4981970;28;20092;-64
2023/10/14 07:35:40;;;;;;;8.73;1.63;;;13.30;99.90;;;;;;4987668;28;20513;-64
2023/10/14 07:38:11;;;;;;;13.60;2.10;;;13.30;99.90;;;;;;5005555;28;20109;-64
2023/10/14 07:40:42;;;;;;;15.10;1.70;;;13.20;99.90;;;;;;4988274;28;20404;-64
2023/10/14 07:43:10;;;;;;;9.70;1.67;;;13.30;99.90;;;;;;4987763;28;20030;-64
2023/10/14 07:45:46;;;;;;;8.55;1.20;;;13.30;99.90;;;;;;4987148;28;20030;-64
2023/10/14 07:48:13;;;;;;;8.23;1.17;;;13.30;99.90;;;;;;4986505;28;20014;-64
2023/10/14 07:50:48;;;;;;;9.40;1.30;;;13.30;99.90;;;;;;4988441;28;20023;-64
2023/10/14 07:53:24;;;;;;;10.57;2.13;;;13.30;99.90;;;;;;4984891;28;20292;-64
2023/10/14 07:55:53;;;;;;;8.55;1.73;;;13.40;99.90;;;;;;4985732;28;20027;-64
2023/10/14 07:58:23;;;;;;;16.30;1.90;;;13.40;99.90;;;;;;4984415;28;20045;-64
2023/10/14 08:00:50;;;;;;;10.57;1.30;;;13.40;99.90;;;;;;5003636;28;20057;-64
2023/10/14 08:03:20;;;;;;;13.95;1.70;;;13.50;99.90;;;;;;4981999;28;20034;-64
2023/10/14 08:05:53;;;;;;;11.48;1.95;;;13.50;99.90;;;;;;4987719;28;20587;-64
2023/10/14 08:08:20;;;;;;;13.32;1.77;;;13.50;99.90;;;;;;4989116;28;20030;-64
2023/10/14 08:10:48;;;;;;;14.20;1.67;;;13.50;99.90;;;;;;4986283;28;20039;-65
2023/10/14 08:13:18;;;;;;;13.25;2.22;;;13.60;99.90;;;;;;4986832;28;20026;-64
2023/10/14 08:15:50;;;;;;;9.45;1.63;;;13.60;99.90;;;;;;4983026;28;20113;-64
2023/10/14 08:18:19;;;;;;;15.98;1.75;;;13.50;99.90;;;;;;4985767;28;20021;-64
2023/10/14 08:20:45;;;;;;;15.82;3.08;;;13.50;99.90;;;;;;4985064;28;20058;-64
2023/10/14 08:23:14;;;;;;;19.95;2.97;;;13.60;99.90;;;;;;4987549;28;20029;-64
2023/10/14 08:25:42;;;;;;;12.18;1.60;;;13.60;99.90;;;;;;4985498;28;20061;-64
2023/10/14 08:28:09;;;;;;;12.15;1.83;;;13.60;99.90;;;;;;4983681;28;20026;-64
2023/10/14 08:30:57;;;;;;;12.25;1.42;;;13.70;99.90;;;;;;4984829;28;20045;-64
2023/10/14 08:33:24;;;;;;;10.25;1.35;;;13.70;99.90;;;;;;4984563;28;20061;-64
2023/10/14 08:35:52;;;;;;;11.05;1.77;;;13.80;99.90;;;;;;4988053;28;20089;-64
2023/10/14 08:38:22;;;;;;;12.38;1.95;;;13.70;99.90;;;;;;4984075;28;20026;-64
2023/10/14 08:40:54;;;;;;;7.95;1.77;;;13.80;99.90;;;;;;4988026;28;20049;-64
2023/10/14 08:43:21;;;;;;;18.17;2.63;;;13.80;99.90;;;;;;4984950;28;20034;-69
2023/10/14 08:45:47;;;;;;;12.15;1.90;;;13.80;99.90;;;;;;4986170;28;20102;-64
2023/10/14 08:48:18;;;;;;;11.35;1.70;;;13.80;99.90;;;;;;4986255;28;20113;-64
2023/10/14 08:50:49;;;;;;;14.07;1.83;;;13.90;99.90;;;;;;4982838;28;20033;-64
2023/10/14 08:53:21;;;;;;;8.73;1.65;;;14.00;99.90;;;;;;4984313;28;20032;-64
2023/10/14 08:55:48;;;;;;;11.82;1.85;;;14.00;99.90;;;;;;4982234;28;20068;-64
2023/10/14 08:58:14;;;;;;;14.32;2.13;;;14.00;99.90;;;;;;4986870;28;20036;-64
2023/10/14 09:00:44;;;;;;;9.40;1.75;;;14.00;99.90;;;;;;4981636;28;20018;-64
2023/10/14 09:03:10;;;;;;;13.27;1.88;;;14.00;99.90;;;;;;4982708;28;21885;-64
2023/10/14 09:05:40;;;;;;;20.60;2.65;;;14.10;99.90;;;;;;4984407;28;20026;-64
2023/10/14 09:08:10;;;;;;;16.23;1.80;;;14.20;99.90;;;;;;4985068;28;20034;-64
2023/10/14 09:10:39;;;;;;;18.52;1.98;;;14.10;99.90;;;;;;4984457;28;20041;-64
2023/10/14 09:13:10;;;;;;;15.13;2.00;;;14.20;99.90;;;;;;4985100;28;20041;-64
2023/10/14 09:15:39;;;;;;;15.00;2.17;;;14.20;99.90;;;;;;4982693;28;20041;-64
2023/10/14 09:18:13;;;;;;;15.13;2.20;;;14.20;99.90;;;;;;4980807;28;20491;-64
2023/10/14 09:20:40;;;;;;;14.75;1.90;;;14.40;99.90;;;;;;4982805;28;20031;-65
2023/10/14 09:23:44;;;;;;;12.60;1.63;;;14.40;99.90;;;;;;4984821;28;20081;-65
2023/10/14 09:26:10;;;;;;;8.23;1.42;;;14.50;99.90;;;;;;4987062;28;20026;-65
2023/10/14 09:28:40;;;;;;;7.50;1.40;;;14.50;99.90;;;;;;4985807;28;20037;-65
2023/10/14 09:31:12;;;;;;;12.57;2.03;;;14.50;99.90;;;;;;4984242;28;20051;-65
2023/10/14 09:33:41;;;;;;;9.05;1.65;;;14.60;99.90;;;;;;4982118;28;20030;-73
2023/10/14 09:36:11;;;;;;;8.02;1.60;;;14.70;99.90;;;;;;4984600;28;20026;-67
2023/10/14 09:38:39;;;;;;;19.85;2.10;;;14.80;99.90;;;;;;4983047;28;20080;-61
2023/10/14 09:41:14;;;;;;;12.80;2.10;;;14.80;99.90;;;;;;4985606;28;20316;-65
2023/10/14 09:43:43;;;;;;;10.13;1.58;;;14.90;99.90;;;;;;4985755;28;20031;-65
2023/10/14 09:46:17;;;;;;;20.02;2.58;;;14.80;99.90;;;;;;4984126;28;20022;-72
2023/10/14 09:48:45;;;;;;;10.10;1.60;;;14.60;99.90;;;;;;4987351;28;20027;-72
2023/10/14 09:51:14;;;;;;;17.25;2.30;;;14.50;99.90;;;;;;4986311;28;20455;-73
2023/10/14 09:53:40;;;;;;;11.25;1.90;;;14.60;99.90;;;;;;4987957;28;20117;-73
2023/10/14 09:56:07;;;;;;;10.02;1.88;;;14.60;99.70;;;;;;4986128;28;20105;-72
2023/10/14 09:58:41;;;;;;;13.73;1.95;;;14.60;99.90;;;;;;4983219;28;20089;-72
2023/10/14 10:01:11;;;;;;;10.60;2.03;;;14.60;99.90;;;;;;4982266;28;20029;-73
2023/10/14 10:03:50;;;;;;;11.00;1.65;;;14.70;99.90;;;;;;4985966;28;20030;-72
2023/10/14 10:06:51;;;;;;;16.75;2.20;;;14.90;99.90;;;;;;4983933;28;20026;-73
2023/10/14 10:09:27;;;;;;;9.80;1.95;;;15.20;99.80;;;;;;4986694;28;20077;-72
2023/10/14 10:11:57;;;;;;;15.32;2.05;;;15.40;99.90;;;;;;4984255;28;20026;-71
2023/10/14 10:14:25;;;;;;;11.85;1.77;;;15.50;99.90;;;;;;4987600;28;20030;-71
2023/10/14 10:16:52;;;;;;;;;;;15.60;99.50;;;;;;4985841;28;20054;-71
2023/10/14 10:19:18;;;;;;;14.47;2.53;;;15.80;99.00;;;;;;4984635;28;19914;-73
2023/10/14 10:22:12;;;;;;;11.10;1.67;;;15.80;98.50;;;;;;4983739;28;20031;-72
2023/10/14 10:24:41;;;;;;;10.90;1.73;;;15.80;98.20;;;;;;4984084;28;20038;-71
2023/10/14 10:27:10;;;;;;;14.07;2.00;;;15.80;97.80;;;;;;4980031;28;20034;-70
2023/10/14 10:29:48;;;;;;;11.15;1.77;;;16.00;98.40;;;;;;4991153;28;20037;-72
